sensor_id;sensor_type;location;lat;lon;timestamp;temperature;humidity
24902;DHT22;31328;51.402;0.016;2023-05-07T00:00:54;14.80;99.90
24902;DHT22;31328;51.402;0.016;2023-05-07T00:03:21;14.80;99.90
24902;DHT22;31328;51.402;0.016;2023-05-07T00:05:47;14.80;99.90
24902;DHT22;31328;51.402;0.016;2023-05-07T00:08:14;14.70;99.90
24902;DHT22;31328;51.402;0.016;2023-05-07T00:10:41;14.70;99.90
24902;DHT22;31328;51.402;0.016;2023-05-07T00:13:07;14.70;99.90
24902;DHT22;31328;51.402;0.016;2023-05-07T00:15:33;14.70;99.90
24902;DHT22;31328;51.402;0.016;2023-05-07T00:18:00;14.60;99.90
24902;DHT22;31328;51.402;0.016;2023-05-07T00:20:26;14.60;99.90
24902;DHT22;31328;51.402;0.016;2023-05-07T00:22:52;14.60;99.90
24902;DHT22;31328;51.402;0.016;2023-05-07T00:25:19;14.60;99.90
24902;DHT22;31328;51.402;0.016;2023-05-07T00:27:46;14.60;99.90
24902;DHT22;31328;51.402;0.016;2023-05-07T00:30:13;14.60;99.90
24902;DHT22;31328;51.402;0.016;2023-05-07T00:32:39;14.60;99.90
24902;DHT22;31328;51.402;0.016;2023-05-07T00:35:06;14.60;99.90
24902;DHT22;31328;51.402;0.016;2023-05-07T00:37:33;14.50;99.90
24902;DHT22;31328;51.402;0.016;2023-05-07T00:39:59;14.60;99.90
24902;DHT22;31328;51.402;0.016;2023-05-07T00:42:26;14.60;99.90
24902;DHT22;31328;51.402;0.016;2023-05-07T00:44:54;14.60;99.90
24902;DHT22;31328;51.402;0.016;2023-05-07T00:47:21;14.60;99.90
24902;DHT22;31328;51.402;0.016;2023-05-07T00:49:47;14.60;99.90
24902;DHT22;31328;51.402;0.016;2023-05-07T00:52:16;14.60;99.90
24902;DHT22;31328;51.402;0.016;2023-05-07T00:54:42;14.50;99.90
24902;DHT22;31328;51.402;0.016;2023-05-07T00:57:09;14.50;99.90
24902;DHT22;31328;51.402;0.016;2023-05-07T00:59:37;14.50;99.90
24902;DHT22;31328;51.402;0.016;2023-05-07T01:02:04;14.60;99.90
24902;DHT22;31328;51.402;0.016;2023-05-07T01:04:30;14.50;99.90
24902;DHT22;31328;51.402;0.016;2023-05-07T01:06:57;14.50;99.90
24902;DHT22;31328;51.402;0.016;2023-05-07T01:09:24;14.50;99.90
24902;DHT22;31328;51.402;0.016;2023-05-07T01:11:52;14.50;99.90
24902;DHT22;31328;51.402;0.016;2023-05-07T01:14:19;14.50;99.90
24902;DHT22;31328;51.402;0.016;2023-05-07T01:16:47;14.50;99.90
24902;DHT22;31328;51.402;0.016;2023-05-07T01:19:18;14.50;99.90
24902;DHT22;31328;51.402;0.016;2023-05-07T01:21:47;14.50;99.90
24902;DHT22;31328;51.402;0.016;2023-05-07T01:24:15;14.50;99.90
24902;DHT22;31328;51.402;0.016;2023-05-07T01:26:43;14.50;99.90
24902;DHT22;31328;51.402;0.016;2023-05-07T01:29:12;14.50;99.90
24902;DHT22;31328;51.402;0.016;2023-05-07T01:31:40;14.50;99.90
24902;DHT22;31328;51.402;0.016;2023-05-07T01:34:09;14.40;99.90
24902;DHT22;31328;51.402;0.016;2023-05-07T01:36:38;14.40;99.90
24902;DHT22;31328;51.402;0.016;2023-05-07T01:39:06;14.40;99.90
24902;DHT22;31328;51.402;0.016;2023-05-07T01:41:34;14.30;99.90
24902;DHT22;31328;51.402;0.016;2023-05-07T01:44:03;14.30;99.90
24902;DHT22;31328;51.402;0.016;2023-05-07T01:46:31;14.30;99.90
24902;DHT22;31328;51.402;0.016;2023-05-07T01:48:59;14.30;99.90
24902;DHT22;31328;51.402;0.016;2023-05-07T01:51:25;14.30;99.90
24902;DHT22;31328;51.402;0.016;2023-05-07T01:53:52;14.30;99.90
24902;DHT22;31328;51.402;0.016;2023-05-07T01:56:20;14.30;99.90
24902;DHT22;31328;51.402;0.016;2023-05-07T01:58:47;14.30;99.90
24902;DHT22;31328;51.402;0.016;2023-05-07T02:01:14;14.30;99.90
24902;DHT22;31328;51.402;0.016;2023-05-07T02:03:41;14.20;99.90
24902;DHT22;31328;51.402;0.016;2023-05-07T02:06:15;14.20;99.90
24902;DHT22;31328;51.402;0.016;2023-05-07T02:08:41;14.10;99.90
24902;DHT22;31328;51.402;0.016;2023-05-07T02:11:09;14.10;99.90
24902;DHT22;31328;51.402;0.016;2023-05-07T02:13:36;14.00;99.90
24902;DHT22;31328;51.402;0.016;2023-05-07T02:16:03;14.00;99.90
24902;DHT22;31328;51.402;0.016;2023-05-07T02:18:29;13.90;99.90
24902;DHT22;31328;51.402;0.016;2023-05-07T02:20:56;13.80;99.90
24902;DHT22;31328;51.402;0.016;2023-05-07T02:23:22;13.80;99.90
24902;DHT22;31328;51.402;0.016;2023-05-07T02:25:49;13.80;99.90
24902;DHT22;31328;51.402;0.016;2023-05-07T02:28:15;13.70;99.90
24902;DHT22;31328;51.402;0.016;2023-05-07T02:30:48;13.70;99.90
24902;DHT22;31328;51.402;0.016;2023-05-07T02:33:15;13.70;99.90
24902;DHT22;31328;51.402;0.016;2023-05-07T02:35:42;13.70;99.90
24902;DHT22;31328;51.402;0.016;2023-05-07T02:38:10;13.70;99.90
24902;DHT22;31328;51.402;0.016;2023-05-07T02:40:37;13.70;99.90
24902;DHT22;31328;51.402;0.016;2023-05-07T02:43:08;13.70;99.90
24902;DHT22;31328;51.402;0.016;2023-05-07T02:45:35;13.70;99.90
24902;DHT22;31328;51.402;0.016;2023-05-07T02:48:05;13.70;99.90
24902;DHT22;31328;51.402;0.016;2023-05-07T02:50:32;13.70;99.90
24902;DHT22;31328;51.402;0.016;2023-05-07T02:52:59;13.70;99.90
24902;DHT22;31328;51.402;0.016;2023-05-07T02:55:25;13.80;99.90
24902;DHT22;31328;51.402;0.016;2023-05-07T02:57:52;13.80;99.90
24902;DHT22;31328;51.402;0.016;2023-05-07T03:00:19;13.80;99.90
24902;DHT22;31328;51.402;0.016;2023-05-07T03:02:54;13.80;99.90
24902;DHT22;31328;51.402;0.016;2023-05-07T03:05:20;13.80;99.90
24902;DHT22;31328;51.402;0.016;2023-05-07T03:07:47;13.80;99.90
24902;DHT22;31328;51.402;0.016;2023-05-07T03:10:14;13.80;99.90
24902;DHT22;31328;51.402;0.016;2023-05-07T03:12:41;13.80;99.90
24902;DHT22;31328;51.402;0.016;2023-05-07T03:15:10;13.90;99.90
24902;DHT22;31328;51.402;0.016;2023-05-07T03:17:39;13.90;99.90
24902;DHT22;31328;51.402;0.016;2023-05-07T03:20:05;13.90;99.90
24902;DHT22;31328;51.402;0.016;2023-05-07T03:22:33;13.90;99.90
24902;DHT22;31328;51.402;0.016;2023-05-07T03:24:59;13.80;99.90
24902;DHT22;31328;51.402;0.016;2023-05-07T03:27:26;13.80;99.90
24902;DHT22;31328;51.402;0.016;2023-05-07T03:29:53;13.90;99.90
24902;DHT22;31328;51.402;0.016;2023-05-07T03:32:20;13.90;99.90
24902;DHT22;31328;51.402;0.016;2023-05-07T03:34:48;13.80;99.90
24902;DHT22;31328;51.402;0.016;2023-05-07T03:37:14;13.80;99.90
24902;DHT22;31328;51.402;0.016;2023-05-07T03:39:41;13.80;99.90
24902;DHT22;31328;51.402;0.016;2023-05-07T03:42:08;13.80;99.90
24902;DHT22;31328;51.402;0.016;2023-05-07T03:44:35;13.80;99.90
24902;DHT22;31328;51.402;0.016;2023-05-07T03:47:03;13.80;99.90
24902;DHT22;31328;51.402;0.016;2023-05-07T03:49:30;13.80;99.90
24902;DHT22;31328;51.402;0.016;2023-05-07T03:51:56;13.80;99.90
24902;DHT22;31328;51.402;0.016;2023-05-07T03:54:23;13.80;99.90
24902;DHT22;31328;51.402;0.016;2023-05-07T03:56:50;13.80;99.90
24902;DHT22;31328;51.402;0.016;2023-05-07T03:59:16;13.80;99.90
24902;DHT22;31328;51.402;0.016;2023-05-07T04:01:45;13.80;99.90
24902;DHT22;31328;51.402;0.016;2023-05-07T04:04:16;13.80;99.90
24902;DHT22;31328;51.402;0.016;2023-05-07T04:06:42;13.80;99.90
24902;DHT22;31328;51.402;0.016;2023-05-07T04:09:09;13.70;99.90
24902;DHT22;31328;51.402;0.016;2023-05-07T04:11:38;13.80;99.90
24902;DHT22;31328;51.402;0.016;2023-05-07T04:14:08;13.70;99.90
24902;DHT22;31328;51.402;0.016;2023-05-07T04:16:35;13.80;99.90
24902;DHT22;31328;51.402;0.016;2023-05-07T04:19:02;13.80;99.90
24902;DHT22;31328;51.402;0.016;2023-05-07T04:21:29;13.80;99.90
24902;DHT22;31328;51.402;0.016;2023-05-07T04:23:56;13.80;99.90
24902;DHT22;31328;51.402;0.016;2023-05-07T04:26:23;13.80;99.90
24902;DHT22;31328;51.402;0.016;2023-05-07T04:28:51;13.80;99.90
24902;DHT22;31328;51.402;0.016;2023-05-07T04:31:17;13.80;99.90
24902;DHT22;31328;51.402;0.016;2023-05-07T04:33:48;13.80;99.90
24902;DHT22;31328;51.402;0.016;2023-05-07T04:36:15;13.80;99.90
24902;DHT22;31328;51.402;0.016;2023-05-07T04:38:48;13.80;99.90
24902;DHT22;31328;51.402;0.016;2023-05-07T04:41:16;13.70;99.90
24902;DHT22;31328;51.402;0.016;2023-05-07T04:43:43;13.80;99.90
24902;DHT22;31328;51.402;0.016;2023-05-07T04:46:11;13.80;99.90
24902;DHT22;31328;51.402;0.016;2023-05-07T04:48:37;13.80;99.90
24902;DHT22;31328;51.402;0.016;2023-05-07T04:51:06;13.80;99.90
24902;DHT22;31328;51.402;0.016;2023-05-07T04:53:33;13.80;99.90
24902;DHT22;31328;51.402;0.016;2023-05-07T04:55:59;13.80;99.90
24902;DHT22;31328;51.402;0.016;2023-05-07T04:58:32;13.80;99.90
24902;DHT22;31328;51.402;0.016;2023-05-07T05:00:59;13.80;99.90
24902;DHT22;31328;51.402;0.016;2023-05-07T05:03:26;13.80;99.90
24902;DHT22;31328;51.402;0.016;2023-05-07T05:05:52;13.80;99.90
24902;DHT22;31328;51.402;0.016;2023-05-07T05:08:21;13.80;99.90
24902;DHT22;31328;51.402;0.016;2023-05-07T05:10:47;13.80;99.90
24902;DHT22;31328;51.402;0.016;2023-05-07T05:13:15;13.90;99.90
24902;DHT22;31328;51.402;0.016;2023-05-07T05:15:43;13.80;99.90
24902;DHT22;31328;51.402;0.016;2023-05-07T05:18:10;13.80;99.90
24902;DHT22;31328;51.402;0.016;2023-05-07T05:20:38;13.80;99.90
24902;DHT22;31328;51.402;0.016;2023-05-07T05:23:05;13.80;99.90
24902;DHT22;31328;51.402;0.016;2023-05-07T05:25:32;13.80;99.90
24902;DHT22;31328;51.402;0.016;2023-05-07T05:28:00;13.80;99.90
24902;DHT22;31328;51.402;0.016;2023-05-07T05:30:27;13.80;99.90
24902;DHT22;31328;51.402;0.016;2023-05-07T05:32:54;13.80;99.90
24902;DHT22;31328;51.402;0.016;2023-05-07T05:35:20;13.90;99.90
24902;DHT22;31328;51.402;0.016;2023-05-07T05:37:47;13.80;99.90
24902;DHT22;31328;51.402;0.016;2023-05-07T05:40:15;13.90;99.90
24902;DHT22;31328;51.402;0.016;2023-05-07T05:42:42;13.90;99.90
24902;DHT22;31328;51.402;0.016;2023-05-07T05:45:09;13.90;99.90
24902;DHT22;31328;51.402;0.016;2023-05-07T05:47:37;13.90;99.90
24902;DHT22;31328;51.402;0.016;2023-05-07T05:50:04;13.90;99.90
24902;DHT22;31328;51.402;0.016;2023-05-07T05:52:32;13.90;99.90
24902;DHT22;31328;51.402;0.016;2023-05-07T05:54:58;13.90;99.90
24902;DHT22;31328;51.402;0.016;2023-05-07T05:57:26;13.90;99.90
24902;DHT22;31328;51.402;0.016;2023-05-07T05:59:52;14.00;99.90
24902;DHT22;31328;51.402;0.016;2023-05-07T06:02:19;13.90;99.90
24902;DHT22;31328;51.402;0.016;2023-05-07T06:04:45;13.90;99.90
24902;DHT22;31328;51.402;0.016;2023-05-07T06:07:16;13.90;99.90
24902;DHT22;31328;51.402;0.016;2023-05-07T06:09:42;14.00;99.90
24902;DHT22;31328;51.402;0.016;2023-05-07T06:12:09;14.00;99.90
24902;DHT22;31328;51.402;0.016;2023-05-07T06:14:36;14.00;99.90
24902;DHT22;31328;51.402;0.016;2023-05-07T06:17:03;14.00;99.90
24902;DHT22;31328;51.402;0.016;2023-05-07T06:19:29;14.00;99.90
24902;DHT22;31328;51.402;0.016;2023-05-07T06:21:57;14.00;99.90
24902;DHT22;31328;51.402;0.016;2023-05-07T06:24:27;14.00;99.90
24902;DHT22;31328;51.402;0.016;2023-05-07T06:26:53;14.00;99.90
24902;DHT22;31328;51.402;0.016;2023-05-07T06:29:20;14.00;99.90
24902;DHT22;31328;51.402;0.016;2023-05-07T06:31:46;14.10;99.90
24902;DHT22;31328;51.402;0.016;2023-05-07T06:34:14;14.10;99.90
24902;DHT22;31328;51.402;0.016;2023-05-07T06:36:41;14.10;99.90
24902;DHT22;31328;51.402;0.016;2023-05-07T06:39:20;14.10;99.90
24902;DHT22;31328;51.402;0.016;2023-05-07T06:41:46;14.20;99.90
24902;DHT22;31328;51.402;0.016;2023-05-07T06:44:22;14.20;99.90
24902;DHT22;31328;51.402;0.016;2023-05-07T06:46:59;14.10;99.90
24902;DHT22;31328;51.402;0.016;2023-05-07T06:49:25;14.20;99.90
24902;DHT22;31328;51.402;0.016;2023-05-07T06:51:51;14.20;99.90
24902;DHT22;31328;51.402;0.016;2023-05-07T06:54:18;14.20;99.90
24902;DHT22;31328;51.402;0.016;2023-05-07T06:56:46;14.20;99.90
24902;DHT22;31328;51.402;0.016;2023-05-07T06:59:13;14.30;99.90
24902;DHT22;31328;51.402;0.016;2023-05-07T07:01:40;14.20;99.90
24902;DHT22;31328;51.402;0.016;2023-05-07T07:04:08;14.30;99.90
24902;DHT22;31328;51.402;0.016;2023-05-07T07:06:36;14.30;99.90
24902;DHT22;31328;51.402;0.016;2023-05-07T07:09:07;14.30;99.90
24902;DHT22;31328;51.402;0.016;2023-05-07T07:11:33;14.30;99.90
24902;DHT22;31328;51.402;0.016;2023-05-07T07:14:00;14.30;99.90
24902;DHT22;31328;51.402;0.016;2023-05-07T07:16:28;14.30;99.90
24902;DHT22;31328;51.402;0.016;2023-05-07T07:18:55;14.30;99.90
24902;DHT22;31328;51.402;0.016;2023-05-07T07:21:21;14.30;99.90
24902;DHT22;31328;51.402;0.016;2023-05-07T07:23:48;14.40;99.90
24902;DHT22;31328;51.402;0.016;2023-05-07T07:26:15;14.40;99.90
24902;DHT22;31328;51.402;0.016;2023-05-07T07:28:43;14.40;99.90
24902;DHT22;31328;51.402;0.016;2023-05-07T07:31:10;14.40;99.90
24902;DHT22;31328;51.402;0.016;2023-05-07T07:33:37;14.40;99.90
24902;DHT22;31328;51.402;0.016;2023-05-07T07:36:05;14.50;99.90
24902;DHT22;31328;51.402;0.016;2023-05-07T07:38:33;14.50;99.90
24902;DHT22;31328;51.402;0.016;2023-05-07T07:41:00;14.50;99.90
24902;DHT22;31328;51.402;0.016;2023-05-07T07:43:28;14.50;99.90
24902;DHT22;31328;51.402;0.016;2023-05-07T07:45:55;14.50;99.90
24902;DHT22;31328;51.402;0.016;2023-05-07T07:48:22;14.60;99.90
24902;DHT22;31328;51.402;0.016;2023-05-07T07:50:49;14.60;99.90
24902;DHT22;31328;51.402;0.016;2023-05-07T07:53:17;14.60;99.90
24902;DHT22;31328;51.402;0.016;2023-05-07T07:55:44;14.60;99.90
24902;DHT22;31328;51.402;0.016;2023-05-07T07:58:15;14.60;99.90
24902;DHT22;31328;51.402;0.016;2023-05-07T08:00:41;14.60;99.90
24902;DHT22;31328;51.402;0.016;2023-05-07T08:03:11;14.70;99.90
24902;DHT22;31328;51.402;0.016;2023-05-07T08:05:41;14.70;99.90
24902;DHT22;31328;51.402;0.016;2023-05-07T08:08:08;14.70;99.90
24902;DHT22;31328;51.402;0.016;2023-05-07T08:10:37;14.80;99.90
24902;DHT22;31328;51.402;0.016;2023-05-07T08:13:10;14.90;99.90
24902;DHT22;31328;51.402;0.016;2023-05-07T08:15:39;14.90;99.90
24902;DHT22;31328;51.402;0.016;2023-05-07T08:18:06;14.90;99.90
24902;DHT22;31328;51.402;0.016;2023-05-07T08:20:33;15.00;99.90
24902;DHT22;31328;51.402;0.016;2023-05-07T08:23:03;15.10;99.90
24902;DHT22;31328;51.402;0.016;2023-05-07T08:25:30;15.10;99.90
24902;DHT22;31328;51.402;0.016;2023-05-07T08:27:56;15.20;99.90
24902;DHT22;31328;51.402;0.016;2023-05-07T08:30:24;15.30;99.90
24902;DHT22;31328;51.402;0.016;2023-05-07T08:32:51;15.40;99.90
24902;DHT22;31328;51.402;0.016;2023-05-07T08:35:18;15.50;99.90
24902;DHT22;31328;51.402;0.016;2023-05-07T08:37:44;15.60;99.90
24902;DHT22;31328;51.402;0.016;2023-05-07T08:40:11;15.70;99.90
24902;DHT22;31328;51.402;0.016;2023-05-07T08:42:38;15.80;99.90
24902;DHT22;31328;51.402;0.016;2023-05-07T08:45:10;15.90;99.90
24902;DHT22;31328;51.402;0.016;2023-05-07T08:47:44;16.00;99.90
24902;DHT22;31328;51.402;0.016;2023-05-07T08:50:12;16.10;99.90
24902;DHT22;31328;51.402;0.016;2023-05-07T08:52:40;16.20;99.90
24902;DHT22;31328;51.402;0.016;2023-05-07T08:55:08;16.30;99.90
24902;DHT22;31328;51.402;0.016;2023-05-07T08:57:35;16.40;99.90
24902;DHT22;31328;51.402;0.016;2023-05-07T09:00:04;16.50;99.90
24902;DHT22;31328;51.402;0.016;2023-05-07T09:02:35;16.60;99.90
24902;DHT22;31328;51.402;0.016;2023-05-07T09:05:02;16.70;99.90
24902;DHT22;31328;51.402;0.016;2023-05-07T09:07:30;16.70;99.90
24902;DHT22;31328;51.402;0.016;2023-05-07T09:09:58;16.70;99.90
24902;DHT22;31328;51.402;0.016;2023-05-07T09:12:26;16.90;99.90
24902;DHT22;31328;51.402;0.016;2023-05-07T09:14:53;16.90;99.90
24902;DHT22;31328;51.402;0.016;2023-05-07T09:17:20;17.00;99.90
24902;DHT22;31328;51.402;0.016;2023-05-07T09:19:46;17.20;99.90
24902;DHT22;31328;51.402;0.016;2023-05-07T09:22:14;17.30;99.90
24902;DHT22;31328;51.402;0.016;2023-05-07T09:24:55;17.40;99.90
24902;DHT22;31328;51.402;0.016;2023-05-07T09:27:25;17.50;99.90
24902;DHT22;31328;51.402;0.016;2023-05-07T09:29:53;17.60;99.90
24902;DHT22;31328;51.402;0.016;2023-05-07T09:32:19;17.70;99.90
24902;DHT22;31328;51.402;0.016;2023-05-07T09:34:46;17.80;99.90
24902;DHT22;31328;51.402;0.016;2023-05-07T09:37:15;18.00;99.90
24902;DHT22;31328;51.402;0.016;2023-05-07T09:39:46;18.20;99.90
24902;DHT22;31328;51.402;0.016;2023-05-07T09:42:15;18.30;99.90
24902;DHT22;31328;51.402;0.016;2023-05-07T09:44:43;18.40;99.90
24902;DHT22;31328;51.402;0.016;2023-05-07T09:47:23;18.50;99.90
24902;DHT22;31328;51.402;0.016;2023-05-07T09:49:56;18.50;99.90
24902;DHT22;31328;51.402;0.016;2023-05-07T09:52:24;18.50;99.90
24902;DHT22;31328;51.402;0.016;2023-05-07T09:54:57;18.50;99.90
24902;DHT22;31328;51.402;0.016;2023-05-07T09:57:27;18.50;99.90
24902;DHT22;31328;51.402;0.016;2023-05-07T10:00:00;18.60;99.90
24902;DHT22;31328;51.402;0.016;2023-05-07T10:02:35;18.60;99.90
24902;DHT22;31328;51.402;0.016;2023-05-07T10:05:03;18.60;99.90
24902;DHT22;31328;51.402;0.016;2023-05-07T10:07:33;18.60;99.90
24902;DHT22;31328;51.402;0.016;2023-05-07T10:10:06;18.60;99.90
24902;DHT22;31328;51.402;0.016;2023-05-07T10:12:38;18.60;99.90
24902;DHT22;31328;51.402;0.016;2023-05-07T10:15:12;18.50;99.90
24902;DHT22;31328;51.402;0.016;2023-05-07T10:17:41;18.50;99.90
24902;DHT22;31328;51.402;0.016;2023-05-07T10:20:09;18.50;99.90
24902;DHT22;31328;51.402;0.016;2023-05-07T10:25:18;18.50;99.90
24902;DHT22;31328;51.402;0.016;2023-05-07T10:27:46;18.60;99.90
24902;DHT22;31328;51.402;0.016;2023-05-07T10:30:47;18.60;99.90
24902;DHT22;31328;51.402;0.016;2023-05-07T10:33:19;18.60;99.90
24902;DHT22;31328;51.402;0.016;2023-05-07T10:35:48;18.70;99.90
24902;DHT22;31328;51.402;0.016;2023-05-07T10:38:15;18.70;99.90
24902;DHT22;31328;51.402;0.016;2023-05-07T10:40:44;18.80;99.90
24902;DHT22;31328;51.402;0.016;2023-05-07T10:43:11;18.80;99.90
24902;DHT22;31328;51.402;0.016;2023-05-07T10:46:13;18.80;99.90
24902;DHT22;31328;51.402;0.016;2023-05-07T10:51:39;18.80;99.90
24902;DHT22;31328;51.402;0.016;2023-05-07T10:54:26;18.80;99.90
24902;DHT22;31328;51.402;0.016;2023-05-07T10:59:54;18.90;99.90
24902;DHT22;31328;51.402;0.016;2023-05-07T11:05:33;19.00;99.90
24902;DHT22;31328;51.402;0.016;2023-05-07T11:08:15;19.00;99.90
24902;DHT22;31328;51.402;0.016;2023-05-07T11:13:47;19.00;99.90
24902;DHT22;31328;51.402;0.016;2023-05-07T11:16:25;19.00;99.90
24902;DHT22;31328;51.402;0.016;2023-05-07T11:19:01;19.00;99.90
24902;DHT22;31328;51.402;0.016;2023-05-07T11:24:17;19.00;99.90
24902;DHT22;31328;51.402;0.016;2023-05-07T11:26:52;19.00;99.90
24902;DHT22;31328;51.402;0.016;2023-05-07T11:29:21;19.00;99.90
24902;DHT22;31328;51.402;0.016;2023-05-07T11:31:52;19.10;99.90
24902;DHT22;31328;51.402;0.016;2023-05-07T11:34:23;19.10;99.90
24902;DHT22;31328;51.402;0.016;2023-05-07T11:36:52;19.20;99.90
24902;DHT22;31328;51.402;0.016;2023-05-07T11:39:32;19.20;99.90
24902;DHT22;31328;51.402;0.016;2023-05-07T11:42:02;19.20;99.90
24902;DHT22;31328;51.402;0.016;2023-05-07T11:44:44;19.30;99.90
24902;DHT22;31328;51.402;0.016;2023-05-07T11:47:17;19.40;99.40
24902;DHT22;31328;51.402;0.016;2023-05-07T11:49:50;19.40;99.40
24902;DHT22;31328;51.402;0.016;2023-05-07T11:52:18;19.30;99.30
24902;DHT22;31328;51.402;0.016;2023-05-07T11:54:52;19.40;99.30
24902;DHT22;31328;51.402;0.016;2023-05-07T11:57:19;19.40;99.00
24902;DHT22;31328;51.402;0.016;2023-05-07T11:59:45;19.40;99.10
24902;DHT22;31328;51.402;0.016;2023-05-07T12:02:16;19.40;99.10
24902;DHT22;31328;51.402;0.016;2023-05-07T12:04:43;19.30;99.10
24902;DHT22;31328;51.402;0.016;2023-05-07T12:07:16;19.20;99.60
24902;DHT22;31328;51.402;0.016;2023-05-07T12:09:43;19.20;99.20
24902;DHT22;31328;51.402;0.016;2023-05-07T12:12:10;19.30;99.20
24902;DHT22;31328;51.402;0.016;2023-05-07T12:14:41;19.30;99.00
24902;DHT22;31328;51.402;0.016;2023-05-07T12:17:08;19.30;98.90
24902;DHT22;31328;51.402;0.016;2023-05-07T12:19:36;19.30;98.80
24902;DHT22;31328;51.402;0.016;2023-05-07T12:22:03;19.40;98.70
24902;DHT22;31328;51.402;0.016;2023-05-07T12:24:41;19.40;98.60
24902;DHT22;31328;51.402;0.016;2023-05-07T12:27:09;19.40;98.60
24902;DHT22;31328;51.402;0.016;2023-05-07T12:29:35;19.40;98.70
24902;DHT22;31328;51.402;0.016;2023-05-07T12:32:01;19.50;98.80
24902;DHT22;31328;51.402;0.016;2023-05-07T12:34:28;19.60;98.50
24902;DHT22;31328;51.402;0.016;2023-05-07T12:36:54;19.60;98.40
24902;DHT22;31328;51.402;0.016;2023-05-07T12:39:21;19.70;98.50
24902;DHT22;31328;51.402;0.016;2023-05-07T12:41:55;19.80;98.40
24902;DHT22;31328;51.402;0.016;2023-05-07T12:44:23;19.90;98.20
24902;DHT22;31328;51.402;0.016;2023-05-07T12:46:51;19.80;98.10
24902;DHT22;31328;51.402;0.016;2023-05-07T12:49:17;19.80;98.00
24902;DHT22;31328;51.402;0.016;2023-05-07T12:51:49;19.80;98.00
24902;DHT22;31328;51.402;0.016;2023-05-07T12:54:32;19.90;97.90
24902;DHT22;31328;51.402;0.016;2023-05-07T12:57:09;19.90;97.80
24902;DHT22;31328;51.402;0.016;2023-05-07T12:59:37;19.90;97.80
24902;DHT22;31328;51.402;0.016;2023-05-07T13:02:04;19.90;97.80
24902;DHT22;31328;51.402;0.016;2023-05-07T13:04:31;19.90;97.70
24902;DHT22;31328;51.402;0.016;2023-05-07T13:06:58;20.00;97.60
24902;DHT22;31328;51.402;0.016;2023-05-07T13:09:25;20.10;97.70
24902;DHT22;31328;51.402;0.016;2023-05-07T13:11:52;20.20;97.60
24902;DHT22;31328;51.402;0.016;2023-05-07T13:14:18;20.40;97.30
24902;DHT22;31328;51.402;0.016;2023-05-07T13:16:49;20.50;97.00
24902;DHT22;31328;51.402;0.016;2023-05-07T13:19:16;20.50;96.70
24902;DHT22;31328;51.402;0.016;2023-05-07T13:21:43;20.50;96.60
24902;DHT22;31328;51.402;0.016;2023-05-07T13:24:09;20.60;96.50
24902;DHT22;31328;51.402;0.016;2023-05-07T13:26:36;20.60;96.20
24902;DHT22;31328;51.402;0.016;2023-05-07T13:29:02;20.50;96.00
24902;DHT22;31328;51.402;0.016;2023-05-07T13:31:28;20.50;96.00
24902;DHT22;31328;51.402;0.016;2023-05-07T13:33:55;20.40;96.00
24902;DHT22;31328;51.402;0.016;2023-05-07T13:36:22;20.40;96.20
24902;DHT22;31328;51.402;0.016;2023-05-07T13:38:48;20.50;96.10
24902;DHT22;31328;51.402;0.016;2023-05-07T13:41:14;20.50;96.10
24902;DHT22;31328;51.402;0.016;2023-05-07T13:43:41;20.50;96.30
24902;DHT22;31328;51.402;0.016;2023-05-07T13:46:07;20.60;96.00
24902;DHT22;31328;51.402;0.016;2023-05-07T13:48:33;20.70;96.00
24902;DHT22;31328;51.402;0.016;2023-05-07T13:51:00;20.80;96.00
24902;DHT22;31328;51.402;0.016;2023-05-07T13:53:26;20.90;95.70
24902;DHT22;31328;51.402;0.016;2023-05-07T13:55:53;20.80;95.20
24902;DHT22;31328;51.402;0.016;2023-05-07T13:58:19;20.70;95.10
24902;DHT22;31328;51.402;0.016;2023-05-07T14:00:45;20.80;95.20
24902;DHT22;31328;51.402;0.016;2023-05-07T14:03:12;20.80;95.30
24902;DHT22;31328;51.402;0.016;2023-05-07T14:05:38;20.80;95.60
24902;DHT22;31328;51.402;0.016;2023-05-07T14:08:04;21.00;95.10
24902;DHT22;31328;51.402;0.016;2023-05-07T14:10:31;21.10;94.70
24902;DHT22;31328;51.402;0.016;2023-05-07T14:12:57;21.10;94.40
24902;DHT22;31328;51.402;0.016;2023-05-07T14:15:24;21.00;94.40
24902;DHT22;31328;51.402;0.016;2023-05-07T14:17:50;20.90;94.40
24902;DHT22;31328;51.402;0.016;2023-05-07T14:20:16;20.80;94.20
24902;DHT22;31328;51.402;0.016;2023-05-07T14:22:43;20.70;94.20
24902;DHT22;31328;51.402;0.016;2023-05-07T14:25:09;20.60;94.30
24902;DHT22;31328;51.402;0.016;2023-05-07T14:27:35;20.60;94.30
24902;DHT22;31328;51.402;0.016;2023-05-07T14:30:02;20.70;94.20
24902;DHT22;31328;51.402;0.016;2023-05-07T14:32:30;20.70;94.40
24902;DHT22;31328;51.402;0.016;2023-05-07T14:34:57;20.80;93.90
24902;DHT22;31328;51.402;0.016;2023-05-07T14:37:23;20.90;93.80
24902;DHT22;31328;51.402;0.016;2023-05-07T14:39:50;20.90;93.70
24902;DHT22;31328;51.402;0.016;2023-05-07T14:42:17;20.90;93.50
24902;DHT22;31328;51.402;0.016;2023-05-07T14:44:43;20.90;93.50
24902;DHT22;31328;51.402;0.016;2023-05-07T14:47:11;20.80;93.50
24902;DHT22;31328;51.402;0.016;2023-05-07T14:49:37;20.80;93.30
24902;DHT22;31328;51.402;0.016;2023-05-07T14:52:04;20.80;93.30
24902;DHT22;31328;51.402;0.016;2023-05-07T14:54:33;20.90;93.30
24902;DHT22;31328;51.402;0.016;2023-05-07T14:57:01;20.90;93.30
24902;DHT22;31328;51.402;0.016;2023-05-07T14:59:28;20.90;93.20
24902;DHT22;31328;51.402;0.016;2023-05-07T15:01:54;20.90;93.10
24902;DHT22;31328;51.402;0.016;2023-05-07T15:04:20;20.90;93.00
24902;DHT22;31328;51.402;0.016;2023-05-07T15:06:47;20.90;92.90
24902;DHT22;31328;51.402;0.016;2023-05-07T15:09:13;20.90;93.00
24902;DHT22;31328;51.402;0.016;2023-05-07T15:11:40;20.90;92.90
24902;DHT22;31328;51.402;0.016;2023-05-07T15:14:07;20.80;92.80
24902;DHT22;31328;51.402;0.016;2023-05-07T15:16:33;20.80;92.70
24902;DHT22;31328;51.402;0.016;2023-05-07T15:19:00;20.80;92.70
24902;DHT22;31328;51.402;0.016;2023-05-07T15:21:26;20.80;92.70
24902;DHT22;31328;51.402;0.016;2023-05-07T15:23:53;20.80;92.60
24902;DHT22;31328;51.402;0.016;2023-05-07T15:26:19;20.90;92.60
24902;DHT22;31328;51.402;0.016;2023-05-07T15:28:47;20.90;92.60
24902;DHT22;31328;51.402;0.016;2023-05-07T15:31:15;21.00;92.60
24902;DHT22;31328;51.402;0.016;2023-05-07T15:33:42;21.00;92.30
24902;DHT22;31328;51.402;0.016;2023-05-07T15:36:09;21.00;92.00
24902;DHT22;31328;51.402;0.016;2023-05-07T15:38:35;20.90;92.00
24902;DHT22;31328;51.402;0.016;2023-05-07T15:41:01;20.90;92.10
24902;DHT22;31328;51.402;0.016;2023-05-07T15:43:28;20.90;92.20
24902;DHT22;31328;51.402;0.016;2023-05-07T15:45:54;20.90;92.10
24902;DHT22;31328;51.402;0.016;2023-05-07T15:48:20;20.90;92.00
24902;DHT22;31328;51.402;0.016;2023-05-07T15:50:47;20.90;92.00
24902;DHT22;31328;51.402;0.016;2023-05-07T15:53:13;21.00;91.80